sensor_id;sensor_type;location;lat;lon;timestamp;pressure;altitude;pressure_sealevel;temperature;humidity
68758;BME280;55747;51.998;4.466;2022-09-16T00:02:00;56391.00;;;-144.48;62.95
68758;BME280;55747;51.998;4.466;2022-09-16T00:04:25;56403.41;;;-144.48;63.15
68758;BME280;55747;51.998;4.466;2022-09-16T00:06:50;56386.88;;;-144.48;63.02
68758;BME280;55747;51.998;4.466;2022-09-16T00:09:16;56399.28;;;-144.48;62.86
68758;BME280;55747;51.998;4.466;2022-09-16T00:11:41;56395.16;;;-144.48;62.24
68758;BME280;55747;51.998;4.466;2022-09-16T00:14:06;56370.34;;;-144.48;62.33
68758;BME280;55747;51.998;4.466;2022-09-16T00:16:32;56403.41;;;-144.48;62.44
68758;BME280;55747;51.998;4.466;2022-09-16T00:18:58;56409.63;;;-144.48;62.16
68758;BME280;55747;51.998;4.466;2022-09-16T00:21:25;56391.00;;;-144.48;61.23
68758;BME280;55747;51.998;4.466;2022-09-16T00:23:51;56399.28;;;-144.48;61.72
68758;BME280;55747;51.998;4.466;2022-09-16T00:26:17;56384.81;;;-144.48;62.61
68758;BME280;55747;51.998;4.466;2022-09-16T00:28:42;56403.41;;;-144.48;62.55
68758;BME280;55747;51.998;4.466;2022-09-16T00:31:08;56384.81;;;-144.48;62.62
68758;BME280;55747;51.998;4.466;2022-09-16T00:33:33;56372.41;;;-144.48;62.88
68758;BME280;55747;51.998;4.466;2022-09-16T00:36:13;56397.22;;;-144.48;62.34
68758;BME280;55747;51.998;4.466;2022-09-16T00:38:40;56415.81;;;-144.48;62.99
68758;BME280;55747;51.998;4.466;2022-09-16T00:41:06;56360.00;;;-144.48;63.47
68758;BME280;55747;51.998;4.466;2022-09-16T00:43:55;56386.88;;;-144.48;63.95
68758;BME280;55747;51.998;4.466;2022-09-16T00:46:42;56388.94;;;-144.48;64.96
68758;BME280;55747;51.998;4.466;2022-09-16T00:49:18;56419.97;;;-144.48;65.69
68758;BME280;55747;51.998;4.466;2022-09-16T00:51:45;56393.09;;;-144.48;65.86
68758;BME280;55747;51.998;4.466;2022-09-16T00:54:13;56395.16;;;-144.48;66.65
68758;BME280;55747;51.998;4.466;2022-09-16T00:56:43;56376.53;;;-144.48;66.93
68758;BME280;55747;51.998;4.466;2022-09-16T00:59:13;56395.16;;;-144.48;67.63
68758;BME280;55747;51.998;4.466;2022-09-16T01:01:41;56391.00;;;-144.48;67.73
68758;BME280;55747;51.998;4.466;2022-09-16T01:04:14;56364.13;;;-144.48;68.13
68758;BME280;55747;51.998;4.466;2022-09-16T01:06:41;56386.88;;;-144.48;68.11
68758;BME280;55747;51.998;4.466;2022-09-16T01:09:07;56401.34;;;-144.48;68.01
68758;BME280;55747;51.998;4.466;2022-09-16T01:11:32;56376.53;;;-144.48;67.62
68758;BME280;55747;51.998;4.466;2022-09-16T01:13:58;56395.16;;;-144.48;67.36
68758;BME280;55747;51.998;4.466;2022-09-16T01:16:51;56364.13;;;-144.48;67.24
68758;BME280;55747;51.998;4.466;2022-09-16T01:22:29;56401.34;;;-144.48;70.23
68758;BME280;55747;51.998;4.466;2022-09-16T01:25:19;56380.69;;;-144.48;72.19
68758;BME280;55747;51.998;4.466;2022-09-16T01:33:27;56411.69;;;-144.48;78.18
68758;BME280;55747;51.998;4.466;2022-09-16T01:36:05;56380.69;;;-144.48;79.17
68758;BME280;55747;51.998;4.466;2022-09-16T01:44:35;56422.03;;;-144.48;80.59
68758;BME280;55747;51.998;4.466;2022-09-16T01:47:11;56386.88;;;-144.48;80.83
68758;BME280;55747;51.998;4.466;2022-09-16T01:49:49;56374.47;;;-144.48;81.35
68758;BME280;55747;51.998;4.466;2022-09-16T01:52:26;56407.56;;;-144.48;82.10
68758;BME280;55747;51.998;4.466;2022-09-16T01:55:04;56391.00;;;-144.48;82.67
68758;BME280;55747;51.998;4.466;2022-09-16T01:57:35;56415.81;;;-144.48;83.27
68758;BME280;55747;51.998;4.466;2022-09-16T02:00:10;56455.09;;;-144.48;83.71
68758;BME280;55747;51.998;4.466;2022-09-16T02:02:52;56430.28;;;-144.48;84.10
68758;BME280;55747;51.998;4.466;2022-09-16T02:05:25;56419.97;;;-144.48;84.29
68758;BME280;55747;51.998;4.466;2022-09-16T02:07:58;56417.91;;;-144.48;84.38
68758;BME280;55747;51.998;4.466;2022-09-16T02:10:42;56417.91;;;-144.48;84.44
68758;BME280;55747;51.998;4.466;2022-09-16T02:13:18;56401.34;;;-144.48;84.43
68758;BME280;55747;51.998;4.466;2022-09-16T02:15:47;56399.28;;;-144.48;84.51
68758;BME280;55747;51.998;4.466;2022-09-16T02:18:18;56409.63;;;-144.48;84.83
68758;BME280;55747;51.998;4.466;2022-09-16T02:20:45;56455.09;;;-144.48;85.01
68758;BME280;55747;51.998;4.466;2022-09-16T02:23:17;56428.22;;;-144.48;85.27
68758;BME280;55747;51.998;4.466;2022-09-16T02:25:45;56422.03;;;-144.48;85.18
68758;BME280;55747;51.998;4.466;2022-09-16T02:28:16;56419.97;;;-144.48;85.25
68758;BME280;55747;51.998;4.466;2022-09-16T02:30:47;56455.09;;;-144.48;85.60
68758;BME280;55747;51.998;4.466;2022-09-16T02:33:15;56428.22;;;-144.48;85.45
68758;BME280;55747;51.998;4.466;2022-09-16T02:35:43;56417.91;;;-144.48;85.35
68758;BME280;55747;51.998;4.466;2022-09-16T02:38:16;56457.19;;;-144.48;85.16
68758;BME280;55747;51.998;4.466;2022-09-16T02:40:49;56417.91;;;-144.48;85.31
68758;BME280;55747;51.998;4.466;2022-09-16T02:43:15;56440.63;;;-144.48;85.30
68758;BME280;55747;51.998;4.466;2022-09-16T02:45:49;56417.91;;;-144.48;85.55
68758;BME280;55747;51.998;4.466;2022-09-16T02:51:14;56409.63;;;-144.48;86.05
68758;BME280;55747;51.998;4.466;2022-09-16T02:56:55;56448.91;;;-144.48;86.03
68758;BME280;55747;51.998;4.466;2022-09-16T02:59:22;56428.22;;;-144.48;85.81
68758;BME280;55747;51.998;4.466;2022-09-16T03:01:47;56417.91;;;-144.48;85.54
68758;BME280;55747;51.998;4.466;2022-09-16T03:04:15;56450.97;;;-144.48;85.58
68758;BME280;55747;51.998;4.466;2022-09-16T03:06:42;56399.28;;;-144.48;85.74
68758;BME280;55747;51.998;4.466;2022-09-16T03:09:09;56419.97;;;-144.48;85.97
68758;BME280;55747;51.998;4.466;2022-09-16T03:25:06;56432.38;;;-144.48;86.60
68758;BME280;55747;51.998;4.466;2022-09-16T03:27:42;56430.28;;;-144.48;86.79
68758;BME280;55747;51.998;4.466;2022-09-16T03:30:10;56419.97;;;-144.48;86.83
68758;BME280;55747;51.998;4.466;2022-09-16T03:32:43;56428.22;;;-144.48;86.94
68758;BME280;55747;51.998;4.466;2022-09-16T03:35:40;56415.81;;;-144.48;86.72
68758;BME280;55747;51.998;4.466;2022-09-16T03:38:07;56471.66;;;-144.48;86.25
68758;BME280;55747;51.998;4.466;2022-09-16T03:40:34;56457.19;;;-144.48;86.13
68758;BME280;55747;51.998;4.466;2022-09-16T03:43:09;56428.22;;;-144.48;85.75
68758;BME280;55747;51.998;4.466;2022-09-16T03:45:34;56436.50;;;-144.48;85.97
68758;BME280;55747;51.998;4.466;2022-09-16T03:47:59;56430.28;;;-144.48;86.24
68758;BME280;55747;51.998;4.466;2022-09-16T03:50:25;56455.09;;;-144.48;86.27
68758;BME280;55747;51.998;4.466;2022-09-16T03:52:50;56417.91;;;-144.48;86.51
68758;BME280;55747;51.998;4.466;2022-09-16T03:55:16;56475.78;;;-144.48;85.81
68758;BME280;55747;51.998;4.466;2022-09-16T03:57:41;56448.91;;;-144.48;85.70
68758;BME280;55747;51.998;4.466;2022-09-16T04:00:07;56438.56;;;-144.48;85.66
68758;BME280;55747;51.998;4.466;2022-09-16T04:02:32;56432.38;;;-144.48;85.88
68758;BME280;55747;51.998;4.466;2022-09-16T04:05:01;56442.69;;;-144.48;86.15
68758;BME280;55747;51.998;4.466;2022-09-16T04:07:26;56424.09;;;-144.48;86.19
68758;BME280;55747;51.998;4.466;2022-09-16T04:09:52;56490.25;;;-144.48;86.28
68758;BME280;55747;51.998;4.466;2022-09-16T04:12:17;56457.19;;;-144.48;86.40
68758;BME280;55747;51.998;4.466;2022-09-16T04:14:42;56450.97;;;-144.48;86.46
68758;BME280;55747;51.998;4.466;2022-09-16T04:17:08;56450.97;;;-144.48;86.53
68758;BME280;55747;51.998;4.466;2022-09-16T04:19:33;56442.69;;;-144.48;86.73
68758;BME280;55747;51.998;4.466;2022-09-16T04:21:58;56417.91;;;-144.48;87.04
68758;BME280;55747;51.998;4.466;2022-09-16T04:24:24;56453.03;;;-144.48;87.24
68758;BME280;55747;51.998;4.466;2022-09-16T04:26:49;56446.84;;;-144.48;87.21
68758;BME280;55747;51.998;4.466;2022-09-16T04:29:14;56465.44;;;-144.48;87.48
68758;BME280;55747;51.998;4.466;2022-09-16T04:31:41;56428.22;;;-144.48;87.95
68758;BME280;55747;51.998;4.466;2022-09-16T04:34:08;56448.91;;;-144.48;88.45
68758;BME280;55747;51.998;4.466;2022-09-16T04:36:36;56422.03;;;-144.48;88.90
68758;BME280;55747;51.998;4.466;2022-09-16T04:39:01;56419.97;;;-144.48;89.33
68758;BME280;55747;51.998;4.466;2022-09-16T04:41:27;56424.09;;;-144.48;89.44
68758;BME280;55747;51.998;4.466;2022-09-16T04:43:56;56382.75;;;-144.48;89.86
68758;BME280;55747;51.998;4.466;2022-09-16T04:46:23;56450.97;;;-144.48;89.88
68758;BME280;55747;51.998;4.466;2022-09-16T04:48:50;56430.28;;;-144.48;90.06
68758;BME280;55747;51.998;4.466;2022-09-16T04:51:16;56461.31;;;-144.48;89.83
68758;BME280;55747;51.998;4.466;2022-09-16T04:53:42;56455.09;;;-144.48;89.68
68758;BME280;55747;51.998;4.466;2022-09-16T04:56:16;56450.97;;;-144.48;89.57
68758;BME280;55747;51.998;4.466;2022-09-16T04:58:45;56484.06;;;-144.48;89.39
68758;BME280;55747;51.998;4.466;2022-09-16T05:01:13;56471.66;;;-144.48;89.28
68758;BME280;55747;51.998;4.466;2022-09-16T05:03:40;56484.06;;;-144.48;89.17
68758;BME280;55747;51.998;4.466;2022-09-16T05:06:12;56450.97;;;-144.48;89.42
68758;BME280;55747;51.998;4.466;2022-09-16T05:08:38;56463.38;;;-144.48;89.58
68758;BME280;55747;51.998;4.466;2022-09-16T05:11:06;56411.69;;;-144.48;89.66
68758;BME280;55747;51.998;4.466;2022-09-16T05:13:31;56467.50;;;-144.48;90.06
68758;BME280;55747;51.998;4.466;2022-09-16T05:16:17;56450.97;;;-144.48;90.04
68758;BME280;55747;51.998;4.466;2022-09-16T05:18:45;56461.31;;;-144.48;90.12
68758;BME280;55747;51.998;4.466;2022-09-16T05:21:13;56461.31;;;-144.48;90.20
68758;BME280;55747;51.998;4.466;2022-09-16T05:23:39;56463.38;;;-144.48;90.14
68758;BME280;55747;51.998;4.466;2022-09-16T05:26:16;56463.38;;;-144.48;90.13
68758;BME280;55747;51.998;4.466;2022-09-16T05:28:42;56475.78;;;-144.48;89.87
68758;BME280;55747;51.998;4.466;2022-09-16T05:31:15;56453.03;;;-144.48;89.82
68758;BME280;55747;51.998;4.466;2022-09-16T05:33:42;56399.28;;;-144.48;89.89
68758;BME280;55747;51.998;4.466;2022-09-16T05:36:11;56450.97;;;-144.48;89.89
68758;BME280;55747;51.998;4.466;2022-09-16T05:38:36;56434.44;;;-144.48;89.67
68758;BME280;55747;51.998;4.466;2022-09-16T05:41:03;56426.16;;;-144.48;89.72
68758;BME280;55747;51.998;4.466;2022-09-16T05:43:29;56426.16;;;-144.48;89.79
68758;BME280;55747;51.998;4.466;2022-09-16T05:45:55;56459.25;;;-144.48;88.04
68758;BME280;55747;51.998;4.466;2022-09-16T05:48:21;56465.44;;;-144.48;85.08
68758;BME280;55747;51.998;4.466;2022-09-16T05:50:56;56432.38;;;-144.48;82.94
68758;BME280;55747;51.998;4.466;2022-09-16T05:53:22;56436.50;;;-144.48;82.05
68758;BME280;55747;51.998;4.466;2022-09-16T05:55:59;56471.66;;;-144.48;82.11
68758;BME280;55747;51.998;4.466;2022-09-16T05:58:26;56467.50;;;-144.48;80.84
68758;BME280;55747;51.998;4.466;2022-09-16T06:01:00;56465.44;;;-144.48;78.94
68758;BME280;55747;51.998;4.466;2022-09-16T06:03:26;56424.09;;;-144.48;73.32
68758;BME280;55747;51.998;4.466;2022-09-16T06:05:59;56444.78;;;-144.48;72.47
68758;BME280;55747;51.998;4.466;2022-09-16T06:08:24;56471.66;;;-144.48;74.04
68758;BME280;55747;51.998;4.466;2022-09-16T06:10:50;56440.63;;;-144.48;76.10
68758;BME280;55747;51.998;4.466;2022-09-16T06:13:15;56459.25;;;-144.48;76.83
68758;BME280;55747;51.998;4.466;2022-09-16T06:15:48;56448.91;;;-144.48;77.79
68758;BME280;55747;51.998;4.466;2022-09-16T06:18:13;56459.25;;;-144.48;77.93
68758;BME280;55747;51.998;4.466;2022-09-16T06:20:43;56450.97;;;-144.48;78.26
68758;BME280;55747;51.998;4.466;2022-09-16T06:23:15;56479.91;;;-144.48;78.72
68758;BME280;55747;51.998;4.466;2022-09-16T06:25:41;56448.91;;;-144.48;79.17
68758;BME280;55747;51.998;4.466;2022-09-16T06:28:06;56463.38;;;-144.48;79.60
68758;BME280;55747;51.998;4.466;2022-09-16T06:30:33;56448.91;;;-144.48;79.73
68758;BME280;55747;51.998;4.466;2022-09-16T06:32:58;56484.06;;;-144.48;80.13
68758;BME280;55747;51.998;4.466;2022-09-16T06:35:24;56444.78;;;-144.48;80.26
68758;BME280;55747;51.998;4.466;2022-09-16T06:37:49;56440.63;;;-144.48;80.58
68758;BME280;55747;51.998;4.466;2022-09-16T06:40:14;56469.56;;;-144.48;80.59
68758;BME280;55747;51.998;4.466;2022-09-16T06:42:40;56434.44;;;-144.48;79.94
68758;BME280;55747;51.998;4.466;2022-09-16T06:45:06;56436.50;;;-144.48;78.11
68758;BME280;55747;51.998;4.466;2022-09-16T06:47:37;56409.63;;;-144.48;71.13
68758;BME280;55747;51.998;4.466;2022-09-16T06:50:03;56419.97;;;-144.48;59.33
68758;BME280;55747;51.998;4.466;2022-09-16T06:52:29;56382.75;;;-144.48;58.24
68758;BME280;55747;51.998;4.466;2022-09-16T06:54:54;56397.22;;;-144.48;54.43
68758;BME280;55747;51.998;4.466;2022-09-16T06:57:20;56391.00;;;-144.48;50.43
68758;BME280;55747;51.998;4.466;2022-09-16T06:59:53;56374.47;;;-144.48;46.75
68758;BME280;55747;51.998;4.466;2022-09-16T07:02:18;56364.13;;;-144.48;45.56
68758;BME280;55747;51.998;4.466;2022-09-16T07:04:46;56378.63;;;-144.48;43.18
68758;BME280;55747;51.998;4.466;2022-09-16T07:07:12;56343.47;;;-144.48;42.16
68758;BME280;55747;51.998;4.466;2022-09-16T07:09:44;56266.97;;;-144.48;42.04
68758;BME280;55747;51.998;4.466;2022-09-16T07:12:10;56333.13;;;-144.48;39.46
68758;BME280;55747;51.998;4.466;2022-09-16T07:14:35;56318.66;;;-144.48;38.58
68758;BME280;55747;51.998;4.466;2022-09-16T07:17:00;56318.66;;;-144.48;39.29
68758;BME280;55747;51.998;4.466;2022-09-16T07:19:26;56391.00;;;-144.48;46.34
68758;BME280;55747;51.998;4.466;2022-09-16T07:21:52;56368.28;;;-144.48;55.27
68758;BME280;55747;51.998;4.466;2022-09-16T07:24:18;56405.50;;;-144.48;61.83
68758;BME280;55747;51.998;4.466;2022-09-16T07:26:44;56413.75;;;-144.48;66.45
68758;BME280;55747;51.998;4.466;2022-09-16T07:29:14;56422.03;;;-144.48;69.79
68758;BME280;55747;51.998;4.466;2022-09-16T07:31:40;56415.81;;;-144.48;72.70
68758;BME280;55747;51.998;4.466;2022-09-16T07:34:10;56424.09;;;-144.48;74.47
68758;BME280;55747;51.998;4.466;2022-09-16T07:36:38;56413.75;;;-144.48;75.95
68758;BME280;55747;51.998;4.466;2022-09-16T07:39:04;56442.69;;;-144.48;76.46
68758;BME280;55747;51.998;4.466;2022-09-16T07:41:38;56436.50;;;-144.48;77.16
68758;BME280;55747;51.998;4.466;2022-09-16T07:44:05;56399.28;;;-144.48;76.09
68758;BME280;55747;51.998;4.466;2022-09-16T07:46:33;56403.41;;;-144.48;67.05
68758;BME280;55747;51.998;4.466;2022-09-16T07:49:01;56380.69;;;-144.48;56.38
68758;BME280;55747;51.998;4.466;2022-09-16T07:51:27;56362.06;;;-144.48;52.70
68758;BME280;55747;51.998;4.466;2022-09-16T07:53:55;56372.41;;;-144.48;49.18
68758;BME280;55747;51.998;4.466;2022-09-16T07:56:22;56353.81;;;-144.48;46.80
68758;BME280;55747;51.998;4.466;2022-09-16T07:58:49;56368.28;;;-144.48;47.86
68758;BME280;55747;51.998;4.466;2022-09-16T08:01:16;56372.41;;;-144.48;51.00
68758;BME280;55747;51.998;4.466;2022-09-16T08:03:43;56339.34;;;-144.48;49.65
68758;BME280;55747;51.998;4.466;2022-09-16T08:06:20;56357.94;;;-144.48;48.71
68758;BME280;55747;51.998;4.466;2022-09-16T08:08:45;56351.75;;;-144.48;49.82
68758;BME280;55747;51.998;4.466;2022-09-16T08:11:12;56380.69;;;-144.48;53.11
68758;BME280;55747;51.998;4.466;2022-09-16T08:13:40;56417.91;;;-144.48;56.48
68758;BME280;55747;51.998;4.466;2022-09-16T08:16:17;56374.47;;;-144.48;58.22
68758;BME280;55747;51.998;4.466;2022-09-16T08:18:43;56405.50;;;-144.48;58.97
68758;BME280;55747;51.998;4.466;2022-09-16T08:21:15;56388.94;;;-144.48;63.01
68758;BME280;55747;51.998;4.466;2022-09-16T08:23:41;56407.56;;;-144.48;66.50
68758;BME280;55747;51.998;4.466;2022-09-16T08:26:08;56397.22;;;-144.48;68.77
68758;BME280;55747;51.998;4.466;2022-09-16T08:28:36;56442.69;;;-144.48;70.01
68758;BME280;55747;51.998;4.466;2022-09-16T08:31:02;56419.97;;;-144.48;70.39
68758;BME280;55747;51.998;4.466;2022-09-16T08:33:28;56424.09;;;-144.48;70.48
68758;BME280;55747;51.998;4.466;2022-09-16T08:35:58;56415.81;;;-144.48;69.53
68758;BME280;55747;51.998;4.466;2022-09-16T08:38:24;56403.41;;;-144.48;69.28
68758;BME280;55747;51.998;4.466;2022-09-16T08:40:50;56453.03;;;-144.48;69.76
68758;BME280;55747;51.998;4.466;2022-09-16T08:44:11;56403.41;;;-144.48;68.40
68758;BME280;55747;51.998;4.466;2022-09-16T08:46:34;56407.56;;;-144.48;62.02
68758;BME280;55747;51.998;4.466;2022-09-16T08:49:16;56382.75;;;-144.48;61.88
68758;BME280;55747;51.998;4.466;2022-09-16T08:51:44;56386.88;;;-144.48;53.79
68758;BME280;55747;51.998;4.466;2022-09-16T08:54:50;56376.53;;;-144.48;49.42
68758;BME280;55747;51.998;4.466;2022-09-16T08:57:20;56409.63;;;-144.48;55.21
68758;BME280;55747;51.998;4.466;2022-09-16T08:59:53;56409.63;;;-144.48;60.63
68758;BME280;55747;51.998;4.466;2022-09-16T09:05:14;56407.56;;;-144.48;65.14
68758;BME280;55747;51.998;4.466;2022-09-16T09:07:47;56430.28;;;-144.48;65.76
68758;BME280;55747;51.998;4.466;2022-09-16T09:16:03;56407.56;;;-144.48;63.09
68758;BME280;55747;51.998;4.466;2022-09-16T09:18:58;56422.03;;;-144.48;62.57
68758;BME280;55747;51.998;4.466;2022-09-16T09:21:52;56411.69;;;-144.48;62.79
68758;BME280;55747;51.998;4.466;2022-09-16T09:27:25;56395.16;;;-144.48;62.94
68758;BME280;55747;51.998;4.466;2022-09-16T09:32:49;56422.03;;;-144.48;68.25
68758;BME280;55747;51.998;4.466;2022-09-16T09:35:24;56391.00;;;-144.48;70.26
68758;BME280;55747;51.998;4.466;2022-09-16T09:40:48;56384.81;;;-144.48;74.72
68758;BME280;55747;51.998;4.466;2022-09-16T09:43:24;56391.00;;;-144.48;75.89
68758;BME280;55747;51.998;4.466;2022-09-16T09:46:03;56436.50;;;-144.48;76.69
68758;BME280;55747;51.998;4.466;2022-09-16T09:48:47;56419.97;;;-144.48;77.33
68758;BME280;55747;51.998;4.466;2022-09-16T09:51:32;56440.63;;;-144.48;77.89
68758;BME280;55747;51.998;4.466;2022-09-16T09:54:03;56465.44;;;-144.48;73.24
68758;BME280;55747;51.998;4.466;2022-09-16T09:56:33;56432.38;;;-144.48;63.24
68758;BME280;55747;51.998;4.466;2022-09-16T09:59:07;56382.75;;;-144.48;57.42
68758;BME280;55747;51.998;4.466;2022-09-16T10:01:37;56324.88;;;-144.48;52.91
68758;BME280;55747;51.998;4.466;2022-09-16T10:04:10;56382.75;;;-144.48;51.84
68758;BME280;55747;51.998;4.466;2022-09-16T10:06:37;56362.06;;;-144.48;50.91
68758;BME280;55747;51.998;4.466;2022-09-16T10:09:03;56374.47;;;-144.48;52.88
68758;BME280;55747;51.998;4.466;2022-09-16T10:11:30;56405.50;;;-144.48;54.71
68758;BME280;55747;51.998;4.466;2022-09-16T10:13:58;56364.13;;;-144.48;56.72
68758;BME280;55747;51.998;4.466;2022-09-16T10:16:35;56397.22;;;-144.48;57.05
68758;BME280;55747;51.998;4.466;2022-09-16T10:19:26;56409.63;;;-144.48;58.36
68758;BME280;55747;51.998;4.466;2022-09-16T10:21:53;56393.09;;;-144.48;60.65
68758;BME280;55747;51.998;4.466;2022-09-16T10:24:34;56417.91;;;-144.48;63.73
68758;BME280;55747;51.998;4.466;2022-09-16T10:27:04;56411.69;;;-144.48;66.71
68758;BME280;55747;51.998;4.466;2022-09-16T10:29:41;56409.63;;;-144.48;69.68
68758;BME280;55747;51.998;4.466;2022-09-16T10:32:08;56411.69;;;-144.48;70.72
68758;BME280;55747;51.998;4.466;2022-09-16T10:34:37;56401.34;;;-144.48;70.45
68758;BME280;55747;51.998;4.466;2022-09-16T10:39:51;56403.41;;;-144.48;68.23
68758;BME280;55747;51.998;4.466;2022-09-16T10:42:20;56399.28;;;-144.48;59.66
68758;BME280;55747;51.998;4.466;2022-09-16T10:44:46;56360.00;;;-144.48;53.26
68758;BME280;55747;51.998;4.466;2022-09-16T10:47:19;56353.81;;;-144.48;48.50
68758;BME280;55747;51.998;4.466;2022-09-16T10:49:51;56347.59;;;-144.48;45.64
68758;BME280;55747;51.998;4.466;2022-09-16T10:52:24;56341.41;;;-144.48;44.88
68758;BME280;55747;51.998;4.466;2022-09-16T10:54:51;56314.53;;;-144.48;41.35
68758;BME280;55747;51.998;4.466;2022-09-16T10:57:31;56314.53;;;-144.48;39.81
68758;BME280;55747;51.998;4.466;2022-09-16T11:00:21;56310.38;;;-144.48;37.87
68758;BME280;55747;51.998;4.466;2022-09-16T11:05:32;56324.88;;;-144.48;39.79
68758;BME280;55747;51.998;4.466;2022-09-16T11:08:15;56289.72;;;-144.48;37.72
68758;BME280;55747;51.998;4.466;2022-09-16T11:10:58;56254.56;;;-144.48;37.33
68758;BME280;55747;51.998;4.466;2022-09-16T11:13:37;56283.50;;;-144.48;35.27
68758;BME280;55747;51.998;4.466;2022-09-16T11:16:41;56312.47;;;-144.48;35.76
68758;BME280;55747;51.998;4.466;2022-09-16T11:19:25;56283.50;;;-144.48;33.72
68758;BME280;55747;51.998;4.466;2022-09-16T11:25:16;56308.31;;;-144.48;38.73
68758;BME280;55747;51.998;4.466;2022-09-16T11:30:54;56250.44;;;-144.48;35.62
68758;BME280;55747;51.998;4.466;2022-09-16T11:36:44;56320.72;;;-144.48;46.36
68758;BME280;55747;51.998;4.466;2022-09-16T11:39:35;56308.31;;;-144.48;49.25
68758;BME280;55747;51.998;4.466;2022-09-16T11:45:05;56333.13;;;-144.48;43.27
68758;BME280;55747;51.998;4.466;2022-09-16T11:50:28;56326.94;;;-144.48;45.86
68758;BME280;55747;51.998;4.466;2022-09-16T11:53:34;56351.75;;;-144.48;44.89
68758;BME280;55747;51.998;4.466;2022-09-16T11:56:14;56318.66;;;-144.48;45.94
68758;BME280;55747;51.998;4.466;2022-09-16T11:59:09;56329.00;;;-144.48;45.93
68758;BME280;55747;51.998;4.466;2022-09-16T12:01:47;56345.53;;;-144.48;46.61
68758;BME280;55747;51.998;4.466;2022-09-16T12:04:39;56335.19;;;-144.48;48.52
68758;BME280;55747;51.998;4.466;2022-09-16T12:09:49;56326.94;;;-144.48;45.10
68758;BME280;55747;51.998;4.466;2022-09-16T12:12:23;56308.31;;;-144.48;44.65
68758;BME280;55747;51.998;4.466;2022-09-16T12:14:53;56314.53;;;-144.48;43.91
68758;BME280;55747;51.998;4.466;2022-09-16T12:17:27;56320.72;;;-144.48;43.54
68758;BME280;55747;51.998;4.466;2022-09-16T12:19:58;56347.59;;;-144.48;41.92
68758;BME280;55747;51.998;4.466;2022-09-16T12:22:32;56293.84;;;-144.48;39.23
68758;BME280;55747;51.998;4.466;2022-09-16T12:27:47;56302.13;;;-144.48;36.88
68758;BME280;55747;51.998;4.466;2022-09-16T12:30:20;56314.53;;;-144.48;39.86
68758;BME280;55747;51.998;4.466;2022-09-16T12:33:00;56335.19;;;-144.48;43.96
68758;BME280;55747;51.998;4.466;2022-09-16T12:35:36;56329.00;;;-144.48;46.60
68758;BME280;55747;51.998;4.466;2022-09-16T12:38:02;56312.47;;;-144.48;48.84
68758;BME280;55747;51.998;4.466;2022-09-16T12:49:14;56349.66;;;-144.48;59.05
68758;BME280;55747;51.998;4.466;2022-09-16T12:52:01;56349.66;;;-144.48;59.86
68758;BME280;55747;51.998;4.466;2022-09-16T12:54:50;56353.81;;;-144.48;63.35
68758;BME280;55747;51.998;4.466;2022-09-16T12:57:40;56374.47;;;-144.48;64.31
68758;BME280;55747;51.998;4.466;2022-09-16T13:00:13;56372.41;;;-144.48;65.05
68758;BME280;55747;51.998;4.466;2022-09-16T13:02:44;56368.28;;;-144.48;65.78
68758;BME280;55747;51.998;4.466;2022-09-16T13:05:25;56372.41;;;-144.48;67.95
68758;BME280;55747;51.998;4.466;2022-09-16T13:07:54;56401.34;;;-144.48;69.32
68758;BME280;55747;51.998;4.466;2022-09-16T13:10:30;56399.28;;;-144.48;70.17
68758;BME280;55747;51.998;4.466;2022-09-16T13:12:58;56374.47;;;-144.48;70.62
68758;BME280;55747;51.998;4.466;2022-09-16T13:15:31;56399.28;;;-144.48;71.59
68758;BME280;55747;51.998;4.466;2022-09-16T13:20:48;56399.28;;;-144.48;70.72
68758;BME280;55747;51.998;4.466;2022-09-16T13:23:19;56372.41;;;-144.48;67.63
68758;BME280;55747;51.998;4.466;2022-09-16T13:25:50;56384.81;;;-144.48;67.83
68758;BME280;55747;51.998;4.466;2022-09-16T13:28:35;56415.81;;;-144.48;66.68
68758;BME280;55747;51.998;4.466;2022-09-16T13:33:41;56395.16;;;-144.48;66.17
68758;BME280;55747;51.998;4.466;2022-09-16T13:36:30;56409.63;;;-144.48;66.60
68758;BME280;55747;51.998;4.466;2022-09-16T13:39:11;56409.63;;;-144.48;67.01
68758;BME280;55747;51.998;4.466;2022-09-16T13:41:45;56395.16;;;-144.48;67.30
68758;BME280;55747;51.998;4.466;2022-09-16T13:50:10;56397.22;;;-144.48;67.35
68758;BME280;55747;51.998;4.466;2022-09-16T13:52:37;56417.91;;;-144.48;66.85
68758;BME280;55747;51.998;4.466;2022-09-16T13:55:07;56393.09;;;-144.48;67.95
68758;BME280;55747;51.998;4.466;2022-09-16T13:58:04;56397.22;;;-144.48;65.42
68758;BME280;55747;51.998;4.466;2022-09-16T14:00:45;56380.69;;;-144.48;65.12
68758;BME280;55747;51.998;4.466;2022-09-16T14:11:40;56409.63;;;-144.48;65.60
68758;BME280;55747;51.998;4.466;2022-09-16T14:14:13;56395.16;;;-144.48;66.60
68758;BME280;55747;51.998;4.466;2022-09-16T14:16:42;56401.34;;;-144.48;66.13
68758;BME280;55747;51.998;4.466;2022-09-16T14:21:59;56384.81;;;-144.48;68.07
68758;BME280;55747;51.998;4.466;2022-09-16T14:24:24;56397.22;;;-144.48;68.00
68758;BME280;55747;51.998;4.466;2022-09-16T14:26:51;56413.75;;;-144.48;65.65
68758;BME280;55747;51.998;4.466;2022-09-16T14:29:17;56382.75;;;-144.48;64.37
68758;BME280;55747;51.998;4.466;2022-09-16T14:31:42;56372.41;;;-144.48;62.63
68758;BME280;55747;51.998;4.466;2022-09-16T14:34:13;56432.38;;;-144.48;60.68
68758;BME280;55747;51.998;4.466;2022-09-16T14:36:40;56366.22;;;-144.48;57.44
68758;BME280;55747;51.998;4.466;2022-09-16T14:41:42;56368.28;;;-144.48;49.92
68758;BME280;55747;51.998;4.466;2022-09-16T14:46:46;56370.34;;;-144.48;54.51
68758;BME280;55747;51.998;4.466;2022-09-16T14:49:14;56384.81;;;-144.48;52.95
68758;BME280;55747;51.998;4.466;2022-09-16T14:51:47;56304.19;;;-144.48;49.40
68758;BME280;55747;51.998;4.466;2022-09-16T14:54:19;56362.06;;;-144.48;47.03
68758;BME280;55747;51.998;4.466;2022-09-16T14:57:04;56362.06;;;-144.48;44.18